createdAt,value
2022-12-13T00:00:32.782Z,21.3
2022-12-13T00:15:31.782Z,21.3
2022-12-13T00:30:32.104Z,21.4
2022-12-13T00:45:31.770Z,21.4
2022-12-13T01:00:32.528Z,21.4
2022-12-13T01:15:31.972Z,21.4
2022-12-13T01:30:32.300Z,21.5
2022-12-13T01:45:32.222Z,21.5
2022-12-13T02:00:32.249Z,21.5
2022-12-13T02:15:32.469Z,21.5
2022-12-13T02:30:32.138Z,21.5
2022-12-13T02:45:32.450Z,21.5
2022-12-13T03:00:32.149Z,21.6
2022-12-13T03:15:32.155Z,21.7
2022-12-13T03:30:32.303Z,21.6
2022-12-13T03:45:31.816Z,21.6
2022-12-13T04:00:31.813Z,21.6
2022-12-13T04:15:32.283Z,21.7
2022-12-13T04:30:32.381Z,21.7
2022-12-13T04:45:32.283Z,21.7
2022-12-13T05:00:32.057Z,21.7
2022-12-13T05:15:32.612Z,21.7
2022-12-13T05:30:32.989Z,21.8
2022-12-13T05:45:32.062Z,21.8
2022-12-13T06:00:35.967Z,21.8
2022-12-13T06:15:34.688Z,21.8
2022-12-13T06:30:32.850Z,21.8
2022-12-13T06:45:31.941Z,21.9
2022-12-13T07:00:48.237Z,21.9
2022-12-13T07:15:33.061Z,21.9
2022-12-13T07:30:40.510Z,22.0
2022-12-13T07:45:32.439Z,22.1
2022-12-13T08:00:35.772Z,22.2
2022-12-13T08:15:32.135Z,22.3
2022-12-13T08:30:32.765Z,22.3
2022-12-13T08:45:32.564Z,22.5
2022-12-13T09:00:36.086Z,22.5
2022-12-13T09:15:34.135Z,22.6
2022-12-13T09:30:33.270Z,22.7
2022-12-13T09:45:32.366Z,22.9
2022-12-13T10:00:33.477Z,22.9
2022-12-13T10:15:32.625Z,23
2022-12-13T10:30:33.445Z,23
2022-12-13T10:45:32.480Z,23.1
2022-12-13T11:00:34.633Z,23.1
2022-12-13T11:15:32.332Z,23.2
2022-12-13T11:30:33.502Z,23.3
2022-12-13T11:45:32.464Z,23.3
2022-12-13T12:00:35.689Z,23.4
2022-12-13T12:15:32.516Z,23.5
2022-12-13T12:30:32.623Z,23.5
2022-12-13T12:45:56.190Z,23.6
2022-12-13T13:00:34.590Z,23.7
2022-12-13T13:15:32.128Z,23.7
2022-12-13T13:30:34.287Z,23.8
2022-12-13T13:45:32.197Z,23.8
2022-12-13T14:00:34.085Z,23.8
2022-12-13T14:15:32.880Z,23.8
2022-12-13T14:30:33.535Z,23.9
2022-12-13T14:45:37.312Z,23.9
2022-12-13T15:00:37.021Z,24.0
2022-12-13T15:15:31.967Z,24
2022-12-13T15:30:34.863Z,24
2022-12-13T15:45:36.796Z,23.9
2022-12-13T16:00:35.987Z,23.9
2022-12-13T16:15:32.384Z,23.9
2022-12-13T16:30:34.157Z,23.8
2022-12-13T16:45:41.408Z,23.7
2022-12-13T17:00:37.599Z,23.6
2022-12-13T17:15:32.089Z,23.6
2022-12-13T17:30:35.080Z,23.4
2022-12-13T17:45:32.351Z,23.4
2022-12-13T18:00:37.937Z,23.3
2022-12-13T18:15:32.930Z,23.3
2022-12-13T18:30:35.775Z,23.2
2022-12-13T18:45:32.829Z,23.1
2022-12-13T19:00:35.707Z,23.0
2022-12-13T19:15:31.975Z,23
2022-12-13T19:30:35.503Z,22.9
2022-12-13T19:45:32.657Z,22.9
2022-12-13T20:00:35.808Z,22.9
2022-12-13T20:15:32.521Z,22.8
2022-12-13T20:30:33.487Z,22.8
2022-12-13T20:45:32.458Z,22.8
2022-12-13T21:00:37.017Z,22.7
2022-12-13T21:15:32.845Z,22.7
2022-12-13T21:30:32.559Z,22.7
2022-12-13T21:45:32.005Z,22.7
2022-12-13T22:00:33.071Z,22.6
2022-12-13T22:15:32.017Z,22.6
2022-12-13T22:30:32.285Z,22.6
2022-12-13T22:45:32.084Z,22.6
2022-12-13T23:00:32.432Z,22.6
2022-12-13T23:15:32.166Z,22.5
2022-12-13T23:30:31.872Z,22.5
2022-12-13T23:45:32.490Z,22.5
